Startpagina
METAR-TAF:

METAR-TAF

Vliegvelden :

Poprad, Slowakije

breedte: 49-04N, lengte: 020-15E, hoogte: 694 m

Actueel weer

Dit bericht is 18 minuten geleden gemaakt, om 03:00 UTC
Wind 14 kt uit het westzuidwesten
Temperatuur 11°C
Vochtigheid 87%
Druk 1007 hPa
Zicht 10 km of meer
Weinig wolken op 1000 ft

METAR: LZTT 060300Z 25014KT 9999 FEW010 11/09 Q1007

Tijdstip: 05:18 (03:18 UTC)

Verwachting

Dit bericht is 4 uur en het 18 minuten geleden gemaakt, om 23:00 UTC
Verwachting geldig van 06 om 00 UTC tot 07 om 00 UTC
Wind 9 kt uit het westzuidwesten
Zicht 10 km of meer
Verspreide wolken op 4500 ft
Wijzigt naar
van 06 om 10 UTC tot 06 om 12 UTC
Wind 4 kt uit het zuidzuidwesten
Wijzigt naar
van 06 om 21 UTC tot 06 om 23 UTC
Weinig wolken op 5000 ft
Gebroken wolken op 7000 ft

TAF: LZTT 052300Z 0600/0700 24009KT 9999 SCT045 BECMG 0610/0612 21004KT BECMG 0621/0623 FEW050 BKN070

Waarnemingen en weersverwachtingen van meer dan 4000 vliegvelden (METAR en TAF).

De beschikbare stations zijn de gele en rode punten op de kaart.

Ga met uw muis naar het station om de naam te zien.

Klik dan om waarnemingen en weersverwachtingen te zien.

kaart wijzigen: klik op de groene knoppen met een zwart kruis om in te zoomen, op de groene knop met een streepje om uit te zoomen of op de groene pijlen voor aangrenzende kaarten.


METAR-TAF: